Terminal Aerodrome Forecast
Issued by NWS

Home | Current Version | Previous Version | Text Only | Print | Product List | Glossary On
Versions: 1 2 3 4 5 6 7 8 9 10 11 12
000
FTUS45 KABQ 112336
TAFSAF
TAF
KSAF 112336Z 1200/1224 26007KT P6SM FEW250
     FM120200 01006KT P6SM SKC
     FM121200 36015KT P6SM SKC
     FM122100 25006KT P6SM SKC=

USA.gov is the U.S. government's official web portal to all federal, state and local government web resources and services.